Главная страница
METAR-TAF:

METAR-TAF

Аэропорты :

Международный аэропорт имени Хосе Марти

Гавана, Куба

широта: 22-59N, долгота: 082-24W, высота над уровнем моря: 59 м

Текущие метеонаблюдения

Эта сводка был подготовлена 55 минут назад, в 02:55 UTC
Ветер 6 Узел от восточный
Температура 25°C
Влажность 89%
Давление 1018 hPa
Видимость: 9000 м
небольшая облачность на высоте 2500 фута

METAR: MUHA 200255Z 08006KT 9000 FEW025 25/23 Q1018

Время: 23:50 (03:50 UTC)

Прогноз

Эта сводка был подготовлена 4 часа и 50 минут назад, в 23:00 UTC
Прогноз действительный с 20-го 00 UTC до 20-го 24 UTC
Ветер 5 Узел от восточный
Видимость: 9000 м
небольшая облачность на высоте 3000 фута
временами
С 20-го 19 UTC до 20-го 23 UTC
Ветер 10 Узел переменных направлений
Видимость: 5000 м
Отдельные облака на высоте 2000 фута, Кучево-дождевые.
ливневые дожди

TAF: MUHA 192300Z 2000/2024 09005KT 9000 FEW030 TEMPO 2019/2023 VRB10KT 5000 SHRA SCT020CB

Метеонаблюдения и прогнозы для более 4000 аэропортов (сводки METAR и TAF).

Имеющиеся станции представлены на карте желтыми и красными точками.

Чтобы увидеть название станции, наведите на нее мышь.

Затем щелкните, чтобы увидеть метеонаблюдения и метеопрогнозы.

Управление картой: чтобы увеличить масштаб, щелкните зеленые кнопки с черным крестиком; чтобы уменьшить масштаб, щелкните зеленую кнопку с тире; для просмотра соседних карт щелкайте зеленые стрелки.


METAR-TAF: